sensor_id;sensor_type;location;lat;lon;timestamp;pressure;altitude;pressure_sealevel;temperature
80680;BMP280;70043;51.982;-8.514;2023-11-21T00:01:03;100588.72;;;9.47
80680;BMP280;70043;51.982;-8.514;2023-11-21T00:03:30;100588.28;;;9.44
80680;BMP280;70043;51.982;-8.514;2023-11-21T00:05:58;100587.00;;;9.39
80680;BMP280;70043;51.982;-8.514;2023-11-21T00:08:25;100593.03;;;9.38
80680;BMP280;70043;51.982;-8.514;2023-11-21T00:10:52;100592.25;;;9.38
80680;BMP280;70043;51.982;-8.514;2023-11-21T00:13:20;100598.50;;;9.44
80680;BMP280;70043;51.982;-8.514;2023-11-21T00:15:47;100592.41;;;9.36
80680;BMP280;70043;51.982;-8.514;2023-11-21T00:18:14;100606.91;;;9.36
80680;BMP280;70043;51.982;-8.514;2023-11-21T00:20:42;100606.44;;;9.32
80680;BMP280;70043;51.982;-8.514;2023-11-21T00:23:10;100609.94;;;9.31
80680;BMP280;70043;51.982;-8.514;2023-11-21T00:25:37;100613.75;;;9.27
80680;BMP280;70043;51.982;-8.514;2023-11-21T00:28:05;100618.84;;;9.27
80680;BMP280;70043;51.982;-8.514;2023-11-21T00:30:32;100621.06;;;9.22
80680;BMP280;70043;51.982;-8.514;2023-11-21T00:32:59;100628.72;;;9.22
80680;BMP280;70043;51.982;-8.514;2023-11-21T00:35:26;100631.56;;;9.19
80680;BMP280;70043;51.982;-8.514;2023-11-21T00:37:53;100626.97;;;9.23
80680;BMP280;70043;51.982;-8.514;2023-11-21T00:40:21;100632.53;;;9.26
80680;BMP280;70043;51.982;-8.514;2023-11-21T00:42:48;100644.94;;;9.21
80680;BMP280;70043;51.982;-8.514;2023-11-21T00:45:15;100643.34;;;9.20
80680;BMP280;70043;51.982;-8.514;2023-11-21T00:47:42;100653.25;;;9.23
80680;BMP280;70043;51.982;-8.514;2023-11-21T00:50:09;100651.78;;;9.21
80680;BMP280;70043;51.982;-8.514;2023-11-21T00:52:36;100665.47;;;9.20
80680;BMP280;70043;51.982;-8.514;2023-11-21T00:55:03;100667.88;;;9.21
80680;BMP280;70043;51.982;-8.514;2023-11-21T00:57:32;100670.72;;;9.18
80680;BMP280;70043;51.982;-8.514;2023-11-21T00:59:59;100658.34;;;9.15
80680;BMP280;70043;51.982;-8.514;2023-11-21T01:02:26;100665.16;;;9.15
80680;BMP280;70043;51.982;-8.514;2023-11-21T01:04:52;100662.13;;;9.11
80680;BMP280;70043;51.982;-8.514;2023-11-21T01:07:19;100660.50;;;9.10
80680;BMP280;70043;51.982;-8.514;2023-11-21T01:09:47;100654.63;;;9.10
80680;BMP280;70043;51.982;-8.514;2023-11-21T01:12:14;100656.88;;;9.05
80680;BMP280;70043;51.982;-8.514;2023-11-21T01:14:44;100659.41;;;9.05
80680;BMP280;70043;51.982;-8.514;2023-11-21T01:17:11;100665.59;;;9.02
80680;BMP280;70043;51.982;-8.514;2023-11-21T01:19:38;100662.41;;;9.00
80680;BMP280;70043;51.982;-8.514;2023-11-21T01:22:05;100666.72;;;9.00
80680;BMP280;70043;51.982;-8.514;2023-11-21T01:24:32;100677.69;;;9.00
80680;BMP280;70043;51.982;-8.514;2023-11-21T01:26:59;100672.94;;;8.97
80680;BMP280;70043;51.982;-8.514;2023-11-21T01:29:26;100669.72;;;8.95
80680;BMP280;70043;51.982;-8.514;2023-11-21T01:31:54;100669.59;;;8.97
80680;BMP280;70043;51.982;-8.514;2023-11-21T01:34:22;100668.78;;;8.96
80680;BMP280;70043;51.982;-8.514;2023-11-21T01:36:50;100668.28;;;8.92
80680;BMP280;70043;51.982;-8.514;2023-11-21T01:39:16;100667.47;;;8.92
80680;BMP280;70043;51.982;-8.514;2023-11-21T01:41:48;100663.69;;;8.88
80680;BMP280;70043;51.982;-8.514;2023-11-21T01:44:15;100654.59;;;8.85
80680;BMP280;70043;51.982;-8.514;2023-11-21T01:46:43;100659.66;;;8.85
80680;BMP280;70043;51.982;-8.514;2023-11-21T01:49:11;100658.06;;;8.84
80680;BMP280;70043;51.982;-8.514;2023-11-21T01:51:38;100660.75;;;8.83
80680;BMP280;70043;51.982;-8.514;2023-11-21T01:54:06;100667.16;;;8.79
80680;BMP280;70043;51.982;-8.514;2023-11-21T01:56:33;100675.72;;;8.78
80680;BMP280;70043;51.982;-8.514;2023-11-21T01:59:00;100669.69;;;8.79
80680;BMP280;70043;51.982;-8.514;2023-11-21T02:01:27;100677.63;;;8.76
80680;BMP280;70043;51.982;-8.514;2023-11-21T02:03:54;100676.00;;;8.75
80680;BMP280;70043;51.982;-8.514;2023-11-21T02:06:22;100680.44;;;8.73
80680;BMP280;70043;51.982;-8.514;2023-11-21T02:08:49;100680.78;;;8.70
80680;BMP280;70043;51.982;-8.514;2023-11-21T02:11:16;100684.88;;;8.71
80680;BMP280;70043;51.982;-8.514;2023-11-21T02:13:44;100686.03;;;8.68
80680;BMP280;70043;51.982;-8.514;2023-11-21T02:16:12;100686.63;;;8.70
80680;BMP280;70043;51.982;-8.514;2023-11-21T02:18:40;100692.06;;;8.67
80680;BMP280;70043;51.982;-8.514;2023-11-21T02:21:07;100690.31;;;8.68
80680;BMP280;70043;51.982;-8.514;2023-11-21T02:23:37;100701.31;;;8.68
80680;BMP280;70043;51.982;-8.514;2023-11-21T02:26:07;100698.09;;;8.66
80680;BMP280;70043;51.982;-8.514;2023-11-21T02:28:35;100706.84;;;8.72
80680;BMP280;70043;51.982;-8.514;2023-11-21T02:31:02;100712.75;;;8.72
80680;BMP280;70043;51.982;-8.514;2023-11-21T02:33:30;100715.00;;;8.75
80680;BMP280;70043;51.982;-8.514;2023-11-21T02:35:59;100710.72;;;8.76
80680;BMP280;70043;51.982;-8.514;2023-11-21T02:38:26;100712.59;;;8.74
80680;BMP280;70043;51.982;-8.514;2023-11-21T02:40:55;100721.19;;;8.73
80680;BMP280;70043;51.982;-8.514;2023-11-21T02:43:22;100718.78;;;8.71
80680;BMP280;70043;51.982;-8.514;2023-11-21T02:45:49;100720.84;;;8.68
80680;BMP280;70043;51.982;-8.514;2023-11-21T02:48:16;100716.56;;;8.68
80680;BMP280;70043;51.982;-8.514;2023-11-21T02:50:43;100712.41;;;8.67
80680;BMP280;70043;51.982;-8.514;2023-11-21T02:53:09;100719.41;;;8.65
80680;BMP280;70043;51.982;-8.514;2023-11-21T02:55:38;100720.19;;;8.66
80680;BMP280;70043;51.982;-8.514;2023-11-21T02:58:06;100721.28;;;8.63
80680;BMP280;70043;51.982;-8.514;2023-11-21T03:00:33;100738.97;;;8.65
80680;BMP280;70043;51.982;-8.514;2023-11-21T03:03:00;100737.03;;;8.59
80680;BMP280;70043;51.982;-8.514;2023-11-21T03:08:49;100748.16;;;8.58
80680;BMP280;70043;51.982;-8.514;2023-11-21T03:11:16;100751.38;;;8.60
80680;BMP280;70043;51.982;-8.514;2023-11-21T03:13:44;100750.56;;;8.59
80680;BMP280;70043;51.982;-8.514;2023-11-21T03:16:12;100753.09;;;8.59
80680;BMP280;70043;51.982;-8.514;2023-11-21T03:18:39;100753.91;;;8.60
80680;BMP280;70043;51.982;-8.514;2023-11-21T03:21:07;100757.25;;;8.60
80680;BMP280;70043;51.982;-8.514;2023-11-21T03:23:34;100762.50;;;8.59
80680;BMP280;70043;51.982;-8.514;2023-11-21T03:26:01;100763.28;;;8.59
80680;BMP280;70043;51.982;-8.514;2023-11-21T03:28:28;100750.22;;;8.62
80680;BMP280;70043;51.982;-8.514;2023-11-21T03:30:56;100751.97;;;8.62
80680;BMP280;70043;51.982;-8.514;2023-11-21T03:33:23;100752.75;;;8.62
80680;BMP280;70043;51.982;-8.514;2023-11-21T03:35:50;100754.09;;;8.66
80680;BMP280;70043;51.982;-8.514;2023-11-21T03:38:18;100744.34;;;8.62
80680;BMP280;70043;51.982;-8.514;2023-11-21T03:40:45;100745.78;;;8.64
80680;BMP280;70043;51.982;-8.514;2023-11-21T03:43:13;100741.63;;;8.63
80680;BMP280;70043;51.982;-8.514;2023-11-21T03:45:39;100741.50;;;8.65
80680;BMP280;70043;51.982;-8.514;2023-11-21T03:48:08;100734.25;;;8.70
80680;BMP280;70043;51.982;-8.514;2023-11-21T03:50:35;100738.53;;;8.69
80680;BMP280;70043;51.982;-8.514;2023-11-21T03:53:02;100738.06;;;8.74
80680;BMP280;70043;51.982;-8.514;2023-11-21T03:55:29;100735.78;;;8.71
80680;BMP280;70043;51.982;-8.514;2023-11-21T03:57:57;100735.19;;;8.69
80680;BMP280;70043;51.982;-8.514;2023-11-21T04:00:24;100726.88;;;8.67
80680;BMP280;70043;51.982;-8.514;2023-11-21T04:02:52;100721.13;;;8.65
80680;BMP280;70043;51.982;-8.514;2023-11-21T04:05:21;100720.47;;;8.63
80680;BMP280;70043;51.982;-8.514;2023-11-21T04:07:49;100721.75;;;8.59
80680;BMP280;70043;51.982;-8.514;2023-11-21T04:10:16;100723.00;;;8.55
80680;BMP280;70043;51.982;-8.514;2023-11-21T04:12:43;100724.94;;;8.61
80680;BMP280;70043;51.982;-8.514;2023-11-21T04:15:11;100726.19;;;8.57
80680;BMP280;70043;51.982;-8.514;2023-11-21T04:17:39;100731.72;;;8.52
80680;BMP280;70043;51.982;-8.514;2023-11-21T04:20:07;100732.22;;;8.56
80680;BMP280;70043;51.982;-8.514;2023-11-21T04:22:38;100728.47;;;8.60
80680;BMP280;70043;51.982;-8.514;2023-11-21T04:25:08;100734.78;;;8.56
80680;BMP280;70043;51.982;-8.514;2023-11-21T04:27:34;100732.22;;;8.56
80680;BMP280;70043;51.982;-8.514;2023-11-21T04:30:01;100728.69;;;8.48
80680;BMP280;70043;51.982;-8.514;2023-11-21T04:32:28;100734.53;;;8.41
80680;BMP280;70043;51.982;-8.514;2023-11-21T04:34:55;100735.69;;;8.46
80680;BMP280;70043;51.982;-8.514;2023-11-21T04:37:22;100730.25;;;8.41
80680;BMP280;70043;51.982;-8.514;2023-11-21T04:39:51;100732.47;;;8.44
80680;BMP280;70043;51.982;-8.514;2023-11-21T04:42:18;100719.88;;;8.43
80680;BMP280;70043;51.982;-8.514;2023-11-21T04:44:45;100730.25;;;8.41
80680;BMP280;70043;51.982;-8.514;2023-11-21T04:47:12;100715.91;;;8.40
80680;BMP280;70043;51.982;-8.514;2023-11-21T04:49:41;100733.88;;;8.39
80680;BMP280;70043;51.982;-8.514;2023-11-21T04:52:08;100744.25;;;8.45
80680;BMP280;70043;51.982;-8.514;2023-11-21T04:54:36;100755.22;;;8.46
80680;BMP280;70043;51.982;-8.514;2023-11-21T04:57:04;100758.56;;;8.46
80680;BMP280;70043;51.982;-8.514;2023-11-21T04:59:32;100756.97;;;8.45
80680;BMP280;70043;51.982;-8.514;2023-11-21T05:01:59;100748.53;;;8.45
80680;BMP280;70043;51.982;-8.514;2023-11-21T05:04:26;100737.88;;;8.41
80680;BMP280;70043;51.982;-8.514;2023-11-21T05:06:53;100743.44;;;8.45
80680;BMP280;70043;51.982;-8.514;2023-11-21T05:09:20;100734.88;;;8.46
80680;BMP280;70043;51.982;-8.514;2023-11-21T05:11:47;100743.97;;;8.48
80680;BMP280;70043;51.982;-8.514;2023-11-21T05:14:15;100754.44;;;8.45
80680;BMP280;70043;51.982;-8.514;2023-11-21T05:16:44;100775.31;;;8.49
80680;BMP280;70043;51.982;-8.514;2023-11-21T05:19:10;100782.28;;;8.47
80680;BMP280;70043;51.982;-8.514;2023-11-21T05:21:38;100793.25;;;8.47
80680;BMP280;70043;51.982;-8.514;2023-11-21T05:24:06;100778.13;;;8.46
80680;BMP280;70043;51.982;-8.514;2023-11-21T05:26:32;100781.47;;;8.46
80680;BMP280;70043;51.982;-8.514;2023-11-21T05:28:59;100777.47;;;8.44
80680;BMP280;70043;51.982;-8.514;2023-11-21T05:31:27;100767.16;;;8.45
80680;BMP280;70043;51.982;-8.514;2023-11-21T05:33:54;100761.13;;;8.46
80680;BMP280;70043;51.982;-8.514;2023-11-21T05:36:22;100767.00;;;8.47
80680;BMP280;70043;51.982;-8.514;2023-11-21T05:38:49;100770.50;;;8.46
80680;BMP280;70043;51.982;-8.514;2023-11-21T05:41:16;100772.22;;;8.45
80680;BMP280;70043;51.982;-8.514;2023-11-21T05:43:42;100780.41;;;8.49
80680;BMP280;70043;51.982;-8.514;2023-11-21T05:46:09;100786.56;;;8.46
80680;BMP280;70043;51.982;-8.514;2023-11-21T05:48:37;100791.94;;;8.43
80680;BMP280;70043;51.982;-8.514;2023-11-21T05:51:04;100786.56;;;8.46
80680;BMP280;70043;51.982;-8.514;2023-11-21T05:53:31;100791.38;;;8.49
80680;BMP280;70043;51.982;-8.514;2023-11-21T05:55:58;100779.59;;;8.48
80680;BMP280;70043;51.982;-8.514;2023-11-21T05:58:25;100775.59;;;8.46
80680;BMP280;70043;51.982;-8.514;2023-11-21T06:00:52;100790.84;;;8.46
80680;BMP280;70043;51.982;-8.514;2023-11-21T06:03:19;100791.84;;;8.53
80680;BMP280;70043;51.982;-8.514;2023-11-21T06:05:47;100792.50;;;8.55
80680;BMP280;70043;51.982;-8.514;2023-11-21T06:08:14;100807.50;;;8.58
80680;BMP280;70043;51.982;-8.514;2023-11-21T06:10:42;100813.66;;;8.56
80680;BMP280;70043;51.982;-8.514;2023-11-21T06:13:09;100810.31;;;8.55
80680;BMP280;70043;51.982;-8.514;2023-11-21T06:15:36;100805.22;;;8.55
80680;BMP280;70043;51.982;-8.514;2023-11-21T06:18:03;100810.97;;;8.57
80680;BMP280;70043;51.982;-8.514;2023-11-21T06:20:35;100803.19;;;8.59
80680;BMP280;70043;51.982;-8.514;2023-11-21T06:23:04;100810.44;;;8.54
80680;BMP280;70043;51.982;-8.514;2023-11-21T06:25:31;100815.13;;;8.58
80680;BMP280;70043;51.982;-8.514;2023-11-21T06:28:01;100824.97;;;8.61
80680;BMP280;70043;51.982;-8.514;2023-11-21T06:30:28;100837.69;;;8.61
80680;BMP280;70043;51.982;-8.514;2023-11-21T06:32:55;100835.66;;;8.65
80680;BMP280;70043;51.982;-8.514;2023-11-21T06:35:22;100841.69;;;8.64
80680;BMP280;70043;51.982;-8.514;2023-11-21T06:37:49;100844.25;;;8.64
80680;BMP280;70043;51.982;-8.514;2023-11-21T06:40:19;100837.94;;;8.68
80680;BMP280;70043;51.982;-8.514;2023-11-21T06:42:46;100845.72;;;8.66
80680;BMP280;70043;51.982;-8.514;2023-11-21T06:45:13;100836.06;;;8.70
80680;BMP280;70043;51.982;-8.514;2023-11-21T06:47:40;100839.53;;;8.69
80680;BMP280;70043;51.982;-8.514;2023-11-21T06:50:08;100836.06;;;8.70
80680;BMP280;70043;51.982;-8.514;2023-11-21T06:52:35;100835.44;;;8.76
80680;BMP280;70043;51.982;-8.514;2023-11-21T06:55:02;100845.91;;;8.73
80680;BMP280;70043;51.982;-8.514;2023-11-21T06:57:31;100853.94;;;8.78
80680;BMP280;70043;51.982;-8.514;2023-11-21T06:59:58;100869.66;;;8.81
80680;BMP280;70043;51.982;-8.514;2023-11-21T07:02:25;100871.28;;;8.82
80680;BMP280;70043;51.982;-8.514;2023-11-21T07:04:52;100881.31;;;8.84
80680;BMP280;70043;51.982;-8.514;2023-11-21T07:07:18;100892.16;;;8.86
80680;BMP280;70043;51.982;-8.514;2023-11-21T07:09:45;100899.81;;;8.86
80680;BMP280;70043;51.982;-8.514;2023-11-21T07:12:13;100900.59;;;8.86
80680;BMP280;70043;51.982;-8.514;2023-11-21T07:14:41;100897.38;;;8.84
80680;BMP280;70043;51.982;-8.514;2023-11-21T07:17:10;100899.13;;;8.84
80680;BMP280;70043;51.982;-8.514;2023-11-21T07:19:37;100893.91;;;8.85
80680;BMP280;70043;51.982;-8.514;2023-11-21T07:22:04;100892.16;;;8.86
80680;BMP280;70043;51.982;-8.514;2023-11-21T07:24:32;100896.59;;;8.84
80680;BMP280;70043;51.982;-8.514;2023-11-21T07:26:58;100895.66;;;8.85
80680;BMP280;70043;51.982;-8.514;2023-11-21T07:29:26;100898.84;;;8.87
80680;BMP280;70043;51.982;-8.514;2023-11-21T07:31:56;100906.16;;;8.90
80680;BMP280;70043;51.982;-8.514;2023-11-21T07:34:23;100912.22;;;8.89
80680;BMP280;70043;51.982;-8.514;2023-11-21T07:36:50;100918.28;;;8.88
80680;BMP280;70043;51.982;-8.514;2023-11-21T07:39:17;100923.28;;;8.80
80680;BMP280;70043;51.982;-8.514;2023-11-21T07:41:44;100924.59;;;8.84
80680;BMP280;70043;51.982;-8.514;2023-11-21T07:44:14;100924.28;;;8.79
80680;BMP280;70043;51.982;-8.514;2023-11-21T07:46:41;100932.19;;;8.76
80680;BMP280;70043;51.982;-8.514;2023-11-21T07:49:10;100924.81;;;8.73
80680;BMP280;70043;51.982;-8.514;2023-11-21T07:51:37;100945.97;;;8.73
80680;BMP280;70043;51.982;-8.514;2023-11-21T07:54:04;100945.97;;;8.73
80680;BMP280;70043;51.982;-8.514;2023-11-21T07:56:31;100963.94;;;8.72
80680;BMP280;70043;51.982;-8.514;2023-11-21T07:58:57;100968.91;;;8.73
80680;BMP280;70043;51.982;-8.514;2023-11-21T08:01:24;100971.97;;;8.77
80680;BMP280;70043;51.982;-8.514;2023-11-21T08:03:53;100971.97;;;8.77
80680;BMP280;70043;51.982;-8.514;2023-11-21T08:06:24;100981.09;;;8.79
80680;BMP280;70043;51.982;-8.514;2023-11-21T08:08:51;100986.31;;;8.78
80680;BMP280;70043;51.982;-8.514;2023-11-21T08:11:18;100992.81;;;8.80
80680;BMP280;70043;51.982;-8.514;2023-11-21T08:13:45;100995.22;;;8.82
80680;BMP280;70043;51.982;-8.514;2023-11-21T08:16:12;100996.97;;;8.81
80680;BMP280;70043;51.982;-8.514;2023-11-21T08:18:39;100994.69;;;8.88
80680;BMP280;70043;51.982;-8.514;2023-11-21T08:21:06;100998.16;;;8.87
80680;BMP280;70043;51.982;-8.514;2023-11-21T08:23:35;100988.25;;;8.84
80680;BMP280;70043;51.982;-8.514;2023-11-21T08:26:02;100990.53;;;8.87
80680;BMP280;70043;51.982;-8.514;2023-11-21T08:28:29;100979.88;;;8.91
80680;BMP280;70043;51.982;-8.514;2023-11-21T08:30:56;100999.28;;;8.92
80680;BMP280;70043;51.982;-8.514;2023-11-21T08:33:22;100997.56;;;8.93
80680;BMP280;70043;51.982;-8.514;2023-11-21T08:35:49;100980.09;;;8.98
80680;BMP280;70043;51.982;-8.514;2023-11-21T08:38:16;100987.91;;;8.97
80680;BMP280;70043;51.982;-8.514;2023-11-21T08:40:45;100993.00;;;8.97
80680;BMP280;70043;51.982;-8.514;2023-11-21T08:43:12;101002.88;;;9.00
80680;BMP280;70043;51.982;-8.514;2023-11-21T08:45:40;101010.34;;;9.01
80680;BMP280;70043;51.982;-8.514;2023-11-21T08:48:07;101006.06;;;9.02
80680;BMP280;70043;51.982;-8.514;2023-11-21T08:50:34;101017.84;;;9.03
80680;BMP280;70043;51.982;-8.514;2023-11-21T08:53:00;101021.06;;;9.05
80680;BMP280;70043;51.982;-8.514;2023-11-21T08:55:27;101014.38;;;9.04
80680;BMP280;70043;51.982;-8.514;2023-11-21T08:57:56;101019.47;;;9.04
80680;BMP280;70043;51.982;-8.514;2023-11-21T09:00:24;101019.31;;;9.05
80680;BMP280;70043;51.982;-8.514;2023-11-21T09:02:51;101030.31;;;9.06
80680;BMP280;70043;51.982;-8.514;2023-11-21T09:05:18;101042.91;;;9.07
80680;BMP280;70043;51.982;-8.514;2023-11-21T09:07:46;101037.66;;;9.09
80680;BMP280;70043;51.982;-8.514;2023-11-21T09:10:14;101030.78;;;9.09
80680;BMP280;70043;51.982;-8.514;2023-11-21T09:12:41;101026.34;;;9.11
80680;BMP280;70043;51.982;-8.514;2023-11-21T09:15:10;101026.09;;;9.14
80680;BMP280;70043;51.982;-8.514;2023-11-21T09:17:37;101036.13;;;9.16
80680;BMP280;70043;51.982;-8.514;2023-11-21T09:20:05;101036.13;;;9.16
80680;BMP280;70043;51.982;-8.514;2023-11-21T09:22:35;101036.28;;;9.14
80680;BMP280;70043;51.982;-8.514;2023-11-21T09:25:02;101037.28;;;9.21
80680;BMP280;70043;51.982;-8.514;2023-11-21T09:27:30;101044.47;;;9.26
80680;BMP280;70043;51.982;-8.514;2023-11-21T09:29:57;101050.22;;;9.28
80680;BMP280;70043;51.982;-8.514;2023-11-21T09:32:26;101055.16;;;9.29
80680;BMP280;70043;51.982;-8.514;2023-11-21T09:34:53;101065.75;;;9.34
80680;BMP280;70043;51.982;-8.514;2023-11-21T09:37:23;101070.69;;;9.36
80680;BMP280;70043;51.982;-8.514;2023-11-21T09:39:52;101063.66;;;9.38
80680;BMP280;70043;51.982;-8.514;2023-11-21T09:42:23;101070.69;;;9.36
80680;BMP280;70043;51.982;-8.514;2023-11-21T09:44:57;101068.94;;;9.36
80680;BMP280;70043;51.982;-8.514;2023-11-21T09:47:28;101070.78;;;9.44
80680;BMP280;70043;51.982;-8.514;2023-11-21T09:49:56;101070.28;;;9.49
80680;BMP280;70043;51.982;-8.514;2023-11-21T09:52:27;101085.63;;;9.57
80680;BMP280;70043;51.982;-8.514;2023-11-21T09:54:55;101089.84;;;9.66
80680;BMP280;70043;51.982;-8.514;2023-11-21T09:57:24;101091.84;;;9.72
80680;BMP280;70043;51.982;-8.514;2023-11-21T09:59:52;101088.00;;;9.76
80680;BMP280;70043;51.982;-8.514;2023-11-21T10:02:23;101089.00;;;9.83
80680;BMP280;70043;51.982;-8.514;2023-11-21T10:04:53;101082.53;;;9.89
80680;BMP280;70043;51.982;-8.514;2023-11-21T10:07:21;101088.75;;;9.94
80680;BMP280;70043;51.982;-8.514;2023-11-21T10:09:48;101097.41;;;10.01
80680;BMP280;70043;51.982;-8.514;2023-11-21T10:12:15;101096.66;;;10.09
80680;BMP280;70043;51.982;-8.514;2023-11-21T10:14:42;101100.03;;;10.17
80680;BMP280;70043;51.982;-8.514;2023-11-21T10:17:10;101094.03;;;10.26
80680;BMP280;70043;51.982;-8.514;2023-11-21T10:19:39;101096.75;;;10.33
80680;BMP280;70043;51.982;-8.514;2023-11-21T10:22:08;101097.75;;;10.40
80680;BMP280;70043;51.982;-8.514;2023-11-21T10:24:35;101095.56;;;10.45
80680;BMP280;70043;51.982;-8.514;2023-11-21T10:27:04;101098.28;;;10.52
80680;BMP280;70043;51.982;-8.514;2023-11-21T10:29:31;101101.78;;;10.59
80680;BMP280;70043;51.982;-8.514;2023-11-21T10:32:02;101103.91;;;10.63
80680;BMP280;70043;51.982;-8.514;2023-11-21T10:34:29;101094.50;;;10.72
80680;BMP280;70043;51.982;-8.514;2023-11-21T10:36:56;101090.50;;;10.78
80680;BMP280;70043;51.982;-8.514;2023-11-21T10:39:25;101096.13;;;10.81
80680;BMP280;70043;51.982;-8.514;2023-11-21T10:41:56;101103.16;;;10.87
80680;BMP280;70043;51.982;-8.514;2023-11-21T10:44:23;101102.81;;;10.90
80680;BMP280;70043;51.982;-8.514;2023-11-21T10:46:51;101103.16;;;10.95
80680;BMP280;70043;51.982;-8.514;2023-11-21T10:49:21;101105.09;;;11.01
80680;BMP280;70043;51.982;-8.514;2023-11-21T10:51:50;101108.13;;;11.05
80680;BMP280;70043;51.982;-8.514;2023-11-21T10:54:19;101105.25;;;11.08
80680;BMP280;70043;51.982;-8.514;2023-11-21T10:56:50;101101.75;;;11.09
80680;BMP280;70043;51.982;-8.514;2023-11-21T10:59:19;101103.66;;;11.15
80680;BMP280;70043;51.982;-8.514;2023-11-21T11:01:50;101114.38;;;11.18
80680;BMP280;70043;51.982;-8.514;2023-11-21T11:04:19;101122.19;;;11.25
80680;BMP280;70043;51.982;-8.514;2023-11-21T11:06:51;101122.34;;;11.32
80680;BMP280;70043;51.982;-8.514;2023-11-21T11:09:20;101129.53;;;11.36
80680;BMP280;70043;51.982;-8.514;2023-11-21T11:11:48;101123.16;;;11.40
80680;BMP280;70043;51.982;-8.514;2023-11-21T11:14:17;101123.31;;;11.47
80680;BMP280;70043;51.982;-8.514;2023-11-21T11:16:45;101116.44;;;11.55
80680;BMP280;70043;51.982;-8.514;2023-11-21T11:19:12;101106.66;;;11.59
80680;BMP280;70043;51.982;-8.514;2023-11-21T11:21:46;101101.09;;;11.63
80680;BMP280;70043;51.982;-8.514;2023-11-21T11:24:39;101101.22;;;11.70
80680;BMP280;70043;51.982;-8.514;2023-11-21T11:27:17;101109.84;;;11.77
80680;BMP280;70043;51.982;-8.514;2023-11-21T11:29:56;101111.09;;;11.81
80680;BMP280;70043;51.982;-8.514;2023-11-21T11:32:35;101110.47;;;11.87
80680;BMP280;70043;51.982;-8.514;2023-11-21T11:35:10;101114.13;;;11.93
80680;BMP280;70043;51.982;-8.514;2023-11-21T11:37:42;101099.38;;;11.95
80680;BMP280;70043;51.982;-8.514;2023-11-21T11:40:11;101110.25;;;11.97
80680;BMP280;70043;51.982;-8.514;2023-11-21T11:42:55;101114.91;;;12.01
80680;BMP280;70043;51.982;-8.514;2023-11-21T11:45:24;101113.59;;;12.05
80680;BMP280;70043;51.982;-8.514;2023-11-21T11:48:00;101106.56;;;12.07
80680;BMP280;70043;51.982;-8.514;2023-11-21T11:50:27;101112.13;;;12.11
80680;BMP280;70043;51.982;-8.514;2023-11-21T11:53:12;101108.44;;;12.13
80680;BMP280;70043;51.982;-8.514;2023-11-21T11:55:39;101109.41;;;12.12
80680;BMP280;70043;51.982;-8.514;2023-11-21T11:58:08;101112.44;;;12.16
80680;BMP280;70043;51.982;-8.514;2023-11-21T12:00:35;101122.19;;;12.21
80680;BMP280;70043;51.982;-8.514;2023-11-21T12:03:07;101113.53;;;12.22
80680;BMP280;70043;51.982;-8.514;2023-11-21T12:05:35;101111.44;;;12.25
80680;BMP280;70043;51.982;-8.514;2023-11-21T12:08:05;101108.72;;;12.27
80680;BMP280;70043;51.982;-8.514;2023-11-21T12:10:33;101115.28;;;12.29
80680;BMP280;70043;51.982;-8.514;2023-11-21T12:13:02;101112.34;;;12.32
80680;BMP280;70043;51.982;-8.514;2023-11-21T12:15:32;101109.47;;;12.35
80680;BMP280;70043;51.982;-8.514;2023-11-21T12:17:59;101115.06;;;12.39
80680;BMP280;70043;51.982;-8.514;2023-11-21T12:20:26;101121.00;;;12.39
80680;BMP280;70043;51.982;-8.514;2023-11-21T12:22:54;101123.03;;;12.44
80680;BMP280;70043;51.982;-8.514;2023-11-21T12:25:23;101113.25;;;12.47
80680;BMP280;70043;51.982;-8.514;2023-11-21T12:27:54;101118.03;;;12.50
80680;BMP280;70043;51.982;-8.514;2023-11-21T12:30:22;101117.25;;;12.50
80680;BMP280;70043;51.982;-8.514;2023-11-21T12:32:52;101120.41;;;12.52
80680;BMP280;70043;51.982;-8.514;2023-11-21T12:35:21;101120.75;;;12.57
80680;BMP280;70043;51.982;-8.514;2023-11-21T12:37:48;101128.06;;;12.60
80680;BMP280;70043;51.982;-8.514;2023-11-21T12:40:16;101116.69;;;12.63
80680;BMP280;70043;51.982;-8.514;2023-11-21T12:42:44;101114.59;;;12.66
80680;BMP280;70043;51.982;-8.514;2023-11-21T12:45:22;101107.53;;;12.68
80680;BMP280;70043;51.982;-8.514;2023-11-21T12:47:54;101112.13;;;12.73
80680;BMP280;70043;51.982;-8.514;2023-11-21T12:50:23;101102.69;;;12.73
80680;BMP280;70043;51.982;-8.514;2023-11-21T12:52:57;101105.53;;;12.78
80680;BMP280;70043;51.982;-8.514;2023-11-21T12:55:25;101111.59;;;12.85
80680;BMP280;70043;51.982;-8.514;2023-11-21T12:57:53;101112.38;;;12.86
80680;BMP280;70043;51.982;-8.514;2023-11-21T13:00:28;101112.69;;;12.91
80680;BMP280;70043;51.982;-8.514;2023-11-21T13:02:57;101101.13;;;12.95
80680;BMP280;70043;51.982;-8.514;2023-11-21T13:05:26;101108.63;;;12.96
80680;BMP280;70043;51.982;-8.514;2023-11-21T13:07:54;101109.59;;;12.95
80680;BMP280;70043;51.982;-8.514;2023-11-21T13:10:23;101107.47;;;12.99
80680;BMP280;70043;51.982;-8.514;2023-11-21T13:12:52;101104.91;;;12.99
80680;BMP280;70043;51.982;-8.514;2023-11-21T13:15:20;101109.72;;;13.02
80680;BMP280;70043;51.982;-8.514;2023-11-21T13:17:47;101111.47;;;13.01
80680;BMP280;70043;51.982;-8.514;2023-11-21T13:20:17;101107.16;;;13.02
80680;BMP280;70043;51.982;-8.514;2023-11-21T13:22:49;101112.28;;;13.02
80680;BMP280;70043;51.982;-8.514;2023-11-21T13:25:19;101112.69;;;13.05
80680;BMP280;70043;51.982;-8.514;2023-11-21T13:27:46;101122.16;;;13.05
80680;BMP280;70043;51.982;-8.514;2023-11-21T13:30:14;101121.03;;;13.07
80680;BMP280;70043;51.982;-8.514;2023-11-21T13:32:48;101111.56;;;13.08
80680;BMP280;70043;51.982;-8.514;2023-11-21T13:35:18;101097.78;;;13.09
80680;BMP280;70043;51.982;-8.514;2023-11-21T13:37:56;101098.22;;;13.13
80680;BMP280;70043;51.982;-8.514;2023-11-21T13:40:25;101091.16;;;13.15
80680;BMP280;70043;51.982;-8.514;2023-11-21T13:42:53;101098.03;;;13.14
80680;BMP280;70043;51.982;-8.514;2023-11-21T13:45:21;101092.59;;;13.17
80680;BMP280;70043;51.982;-8.514;2023-11-21T13:47:50;101086.31;;;13.20
80680;BMP280;70043;51.982;-8.514;2023-11-21T13:50:25;101088.88;;;13.20
80680;BMP280;70043;51.982;-8.514;2023-11-21T13:52:58;101089.69;;;13.20
80680;BMP280;70043;51.982;-8.514;2023-11-21T13:55:29;101090.47;;;13.21
80680;BMP280;70043;51.982;-8.514;2023-11-21T13:57:56;101086.94;;;13.22
80680;BMP280;70043;51.982;-8.514;2023-11-21T14:00:24;101086.31;;;13.20
80680;BMP280;70043;51.982;-8.514;2023-11-21T14:03:10;101099.13;;;13.20